Time;durP1;ratioP1;P1;durP2;ratioP2;P2;SDS_P1;SDS_P2;PMS_P1;PMS_P2;Temp;Humidity;BMP_temperature;BMP_pressure;BME280_temperature;BME280_humidity;BME280_pressure;Samples;Min_cycle;Max_cycle;Signal;HPM_P1;HPM_P2
2023/06/13 00:01:32;;;;;;;5.95;3.42;;;21.90;78.20;;;;;;7385618;19;20141;-71
2023/06/13 00:04:01;;;;;;;4.10;3.00;;;21.70;78.10;;;;;;7380201;19;20138;-71
2023/06/13 00:06:29;;;;;;;4.25;3.25;;;21.70;78.20;;;;;;7387492;19;20134;-71
2023/06/13 00:08:57;;;;;;;3.05;2.63;;;21.50;78.90;;;;;;7388413;19;20539;-70
2023/06/13 00:11:23;;;;;;;2.90;2.60;;;21.10;79.20;;;;;;7385422;19;20452;-71
2023/06/13 00:13:49;;;;;;;4.40;2.72;;;21.20;79.80;;;;;;7387114;19;20145;-72
2023/06/13 00:16:15;;;;;;;2.95;2.38;;;21.10;81.10;;;;;;7385910;19;20491;-73
2023/06/13 00:18:40;;;;;;;4.25;2.50;;;21.30;80.30;;;;;;7385441;19;20172;-72
2023/06/13 00:21:07;;;;;;;4.32;2.45;;;21.10;80.90;;;;;;7381872;19;20141;-71
2023/06/13 00:23:33;;;;;;;4.75;2.85;;;20.90;80.70;;;;;;7387005;19;20134;-71
2023/06/13 00:25:59;;;;;;;3.78;2.80;;;21.00;80.90;;;;;;7384705;19;20135;-72
2023/06/13 00:28:25;;;;;;;4.20;2.60;;;21.20;81.10;;;;;;7386798;19;20131;-71
2023/06/13 00:30:51;;;;;;;3.40;2.70;;;21.30;81.10;;;;;;7384649;19;20204;-71
2023/06/13 00:33:17;;;;;;;3.35;2.60;;;21.40;80.90;;;;;;7386621;19;20238;-72
2023/06/13 00:35:44;;;;;;;3.20;2.60;;;21.50;79.90;;;;;;7382141;19;20142;-71
2023/06/13 00:38:10;;;;;;;2.97;2.67;;;21.30;80.90;;;;;;7377887;19;20134;-72
2023/06/13 00:40:36;;;;;;;3.05;2.72;;;21.30;80.90;;;;;;7391028;19;20154;-72
2023/06/13 00:43:02;;;;;;;5.47;2.63;;;21.40;80.50;;;;;;7390695;19;20186;-72
2023/06/13 00:45:29;;;;;;;3.20;2.30;;;21.40;80.60;;;;;;7391318;19;20135;-72
2023/06/13 00:47:58;;;;;;;3.42;2.78;;;21.20;80.20;;;;;;7390057;19;20123;-71
2023/06/13 00:50:30;;;;;;;4.15;2.70;;;21.20;81.20;;;;;;7391872;19;20767;-72
2023/06/13 00:52:59;;;;;;;4.95;2.47;;;21.20;81.30;;;;;;7389029;19;20146;-71
2023/06/13 00:55:26;;;;;;;3.33;2.90;;;21.20;81.20;;;;;;7391884;19;20548;-72
2023/06/13 00:57:56;;;;;;;2.95;2.65;;;20.90;81.50;;;;;;7390011;19;20146;-71
2023/06/13 01:00:26;;;;;;;3.20;2.60;;;21.00;82.40;;;;;;7389898;19;20146;-71
2023/06/13 01:02:57;;;;;;;4.15;2.75;;;21.10;83.30;;;;;;7391138;19;20135;-72
2023/06/13 01:05:28;;;;;;;3.65;2.53;;;21.20;83.00;;;;;;7391292;19;20147;-73
2023/06/13 01:07:58;;;;;;;2.95;2.40;;;21.20;82.80;;;;;;7392105;19;20127;-72
2023/06/13 01:10:29;;;;;;;3.42;2.53;;;20.80;82.10;;;;;;7389726;19;20138;-72
2023/06/13 01:13:00;;;;;;;4.05;2.50;;;20.80;83.90;;;;;;7390655;19;20162;-73
2023/06/13 01:15:31;;;;;;;4.95;2.72;;;20.90;84.30;;;;;;7390242;19;20130;-72
2023/06/13 01:18:00;;;;;;;4.95;2.78;;;20.80;84.40;;;;;;7390516;19;20139;-72
2023/06/13 01:20:32;;;;;;;2.90;2.60;;;20.90;83.30;;;;;;7391186;19;20154;-72
2023/06/13 01:23:14;;;;;;;3.22;2.53;;;21.00;82.90;;;;;;7392245;19;20142;-72
2023/06/13 01:26:06;;;;;;;4.13;2.70;;;21.00;82.40;;;;;;7388953;19;20142;-71
2023/06/13 01:28:33;;;;;;;3.05;2.35;;;20.80;84.00;;;;;;7389091;19;20571;-72
2023/06/13 01:31:02;;;;;;;4.05;3.25;;;20.70;84.60;;;;;;7389199;19;20189;-73
2023/06/13 01:33:30;;;;;;;3.38;2.55;;;20.90;84.50;;;;;;7390869;19;20903;-72
2023/06/13 01:35:56;;;;;;;4.13;2.55;;;20.90;84.40;;;;;;7387813;19;20154;-72
2023/06/13 01:38:22;;;;;;;3.72;2.67;;;21.00;82.80;;;;;;7392616;19;20139;-73
2023/06/13 01:40:48;;;;;;;3.30;2.60;;;20.90;83.60;;;;;;7390738;19;20556;-72
2023/06/13 01:43:14;;;;;;;3.53;2.50;;;20.70;84.10;;;;;;7390285;19;20294;-72
2023/06/13 01:45:40;;;;;;;3.40;2.90;;;20.90;83.60;;;;;;7391868;19;20159;-71
2023/06/13 01:48:40;;;;;;;4.43;2.58;;;20.80;84.10;;;;;;7390402;19;20170;-71
2023/06/13 01:51:16;;;;;;;3.08;2.20;;;20.90;83.30;;;;;;7388971;19;20659;-71
2023/06/13 01:53:52;;;;;;;3.10;2.70;;;20.90;83.60;;;;;;7392196;19;20126;-72
2023/06/13 01:56:22;;;;;;;4.22;2.83;;;20.80;83.90;;;;;;7392903;19;20588;-72
2023/06/13 01:59:02;;;;;;;3.42;2.25;;;20.80;83.90;;;;;;7389184;19;20175;-71
2023/06/13 02:01:34;;;;;;;4.90;2.95;;;20.70;84.10;;;;;;7387768;19;20558;-72
2023/06/13 02:04:01;;;;;;;4.50;2.53;;;20.70;84.70;;;;;;7389231;19;20150;-71
2023/06/13 02:06:28;;;;;;;4.18;2.50;;;20.70;84.30;;;;;;7389861;19;20484;-72
2023/06/13 02:08:55;;;;;;;4.20;2.60;;;20.60;85.10;;;;;;7388441;19;20138;-71
2023/06/13 02:11:21;;;;;;;4.40;2.30;;;20.70;85.00;;;;;;7389357;19;20610;-71
2023/06/13 02:13:48;;;;;;;2.45;2.13;;;20.60;85.00;;;;;;7388711;19;20131;-71
2023/06/13 02:16:14;;;;;;;3.97;2.42;;;20.70;84.50;;;;;;7390876;19;20305;-71
2023/06/13 02:18:40;;;;;;;5.57;2.22;;;20.70;84.90;;;;;;7390989;19;20245;-71
2023/06/13 02:21:07;;;;;;;5.05;2.33;;;20.50;85.30;;;;;;7389863;19;20135;-71
2023/06/13 02:23:33;;;;;;;2.92;2.25;;;20.60;85.00;;;;;;7390302;19;20138;-71
2023/06/13 02:25:59;;;;;;;3.10;2.30;;;20.30;85.50;;;;;;7390418;19;20142;-71
2023/06/13 02:28:25;;;;;;;3.22;2.30;;;20.40;85.90;;;;;;7389026;19;20733;-72
2023/06/13 02:30:50;;;;;;;2.97;2.47;;;20.30;86.30;;;;;;7389273;19;20150;-71
2023/06/13 02:33:16;;;;;;;3.70;2.33;;;20.30;86.20;;;;;;7389002;19;20150;-71
2023/06/13 02:35:42;;;;;;;3.22;2.30;;;20.50;86.00;;;;;;7387632;19;20139;-71
2023/06/13 02:38:08;;;;;;;3.03;2.25;;;20.40;86.20;;;;;;7387513;19;20592;-72
2023/06/13 02:40:37;;;;;;;3.75;2.30;;;20.50;85.60;;;;;;7390394;19;20205;-72
2023/06/13 02:43:03;;;;;;;2.70;2.38;;;20.50;86.40;;;;;;7388635;19;20154;-72
2023/06/13 02:45:29;;;;;;;3.08;2.30;;;20.40;86.30;;;;;;7390058;19;20134;-71
2023/06/13 02:47:55;;;;;;;3.30;2.35;;;20.50;86.50;;;;;;7388828;19;20126;-71
2023/06/13 02:50:21;;;;;;;3.70;2.55;;;20.30;86.70;;;;;;7385249;19;20589;-72
2023/06/13 02:52:48;;;;;;;3.90;2.45;;;20.20;87.70;;;;;;7391119;19;20151;-72
2023/06/13 02:55:13;;;;;;;2.97;2.30;;;20.20;87.90;;;;;;7387626;19;21101;-71
2023/06/13 02:57:40;;;;;;;4.60;2.20;;;20.30;88.10;;;;;;7387537;19;20225;-70
2023/06/13 03:00:11;;;;;;;5.57;2.95;;;20.20;88.30;;;;;;7387820;19;20144;-71
2023/06/13 03:02:37;;;;;;;4.75;2.75;;;20.20;89.10;;;;;;7386757;19;20131;-71
2023/06/13 03:05:16;;;;;;;6.43;2.72;;;20.20;89.00;;;;;;7389541;19;20129;-71
2023/06/13 03:07:46;;;;;;;3.25;2.45;;;20.30;89.30;;;;;;7387163;19;20127;-72
2023/06/13 03:10:13;;;;;;;2.92;2.47;;;20.20;88.60;;;;;;7388623;19;20210;-71
2023/06/13 03:12:40;;;;;;;3.20;2.58;;;20.10;88.70;;;;;;7391174;19;20166;-72
2023/06/13 03:15:07;;;;;;;5.88;2.70;;;20.00;89.50;;;;;;7386530;19;20184;-72
2023/06/13 03:17:33;;;;;;;4.57;2.83;;;20.00;89.90;;;;;;7386731;19;20149;-72
2023/06/13 03:19:59;;;;;;;3.90;2.53;;;19.90;90.20;;;;;;7387447;19;20131;-71
2023/06/13 03:22:25;;;;;;;3.42;2.50;;;19.90;90.10;;;;;;7387632;19;20632;-71
2023/06/13 03:24:52;;;;;;;2.75;2.40;;;19.90;90.50;;;;;;7382005;19;20221;-71
2023/06/13 03:27:19;;;;;;;2.88;2.10;;;20.00;90.40;;;;;;7385997;19;20488;-71
2023/06/13 03:29:46;;;;;;;2.95;2.30;;;20.00;90.20;;;;;;7386730;19;20134;-71
2023/06/13 03:32:12;;;;;;;3.67;2.30;;;19.90;90.30;;;;;;7389532;19;20134;-72
2023/06/13 03:34:39;;;;;;;4.05;2.28;;;19.80;90.40;;;;;;7385162;19;20546;-71
2023/06/13 03:37:06;;;;;;;2.88;2.30;;;19.80;90.40;;;;;;7389767;19;20127;-72
2023/06/13 03:39:32;;;;;;;2.20;1.98;;;19.80;90.60;;;;;;7387059;19;20131;-72
2023/06/13 03:41:58;;;;;;;3.40;2.35;;;19.90;90.20;;;;;;7386533;19;20138;-72
2023/06/13 03:44:23;;;;;;;3.20;2.28;;;19.80;90.40;;;;;;7387854;19;20146;-72
2023/06/13 03:46:50;;;;;;;2.95;2.30;;;19.90;90.40;;;;;;7389727;19;20135;-72
2023/06/13 03:49:16;;;;;;;2.88;2.30;;;19.80;90.60;;;;;;7387458;19;20136;-72
2023/06/13 03:51:42;;;;;;;3.22;2.63;;;19.90;90.00;;;;;;7386446;19;20491;-72
2023/06/13 03:54:08;;;;;;;5.18;2.30;;;19.90;90.20;;;;;;7385613;19;20584;-73
2023/06/13 03:56:33;;;;;;;6.50;2.00;;;19.90;89.60;;;;;;7387349;19;20197;-72
2023/06/13 03:58:59;;;;;;;2.70;2.20;;;19.90;89.90;;;;;;7385504;19;20899;-71
2023/06/13 04:01:26;;;;;;;2.67;2.00;;;20.00;89.30;;;;;;7384697;19;20611;-71
2023/06/13 04:03:52;;;;;;;2.90;2.10;;;20.10;89.00;;;;;;7385670;19;20236;-71
2023/06/13 04:06:18;;;;;;;2.05;1.80;;;20.10;88.50;;;;;;7386016;19;20189;-72
2023/06/13 04:08:43;;;;;;;4.05;2.53;;;20.10;88.70;;;;;;7388310;19;20130;-71
2023/06/13 04:11:09;;;;;;;5.55;2.35;;;20.10;88.10;;;;;;7385752;19;20137;-72
2023/06/13 04:13:35;;;;;;;3.88;2.20;;;20.10;88.10;;;;;;7388282;19;20130;-72
2023/06/13 04:16:01;;;;;;;4.18;2.10;;;20.20;87.50;;;;;;7391316;19;20217;-72
2023/06/13 04:18:27;;;;;;;3.05;2.03;;;20.10;87.80;;;;;;7394458;19;20155;-73
2023/06/13 04:20:53;;;;;;;3.30;2.30;;;20.00;88.80;;;;;;7392428;19;20552;-73
2023/06/13 04:23:22;;;;;;;3.72;2.00;;;20.00;87.90;;;;;;7393052;19;20167;-72
2023/06/13 04:25:50;;;;;;;3.85;2.13;;;20.10;87.40;;;;;;7391956;19;20147;-72
2023/06/13 04:28:17;;;;;;;3.60;2.13;;;20.00;87.70;;;;;;7390645;19;20466;-72
2023/06/13 04:30:46;;;;;;;3.42;1.73;;;20.10;87.10;;;;;;7393030;19;20241;-72
2023/06/13 04:33:17;;;;;;;2.63;2.08;;;20.10;86.50;;;;;;7391395;19;20138;-72
2023/06/13 04:35:48;;;;;;;2.33;1.77;;;20.00;87.40;;;;;;7390375;19;20149;-72
2023/06/13 04:38:21;;;;;;;2.75;1.90;;;19.90;87.20;;;;;;7391842;19;20127;-72
2023/06/13 04:40:48;;;;;;;2.85;2.20;;;20.00;87.30;;;;;;7391275;19;20142;-72
2023/06/13 04:43:17;;;;;;;2.72;1.75;;;20.00;87.50;;;;;;7389699;19;20167;-72
2023/06/13 04:45:43;;;;;;;3.80;2.05;;;20.00;87.20;;;;;;7391354;19;20206;-72
2023/06/13 04:48:10;;;;;;;3.17;1.90;;;20.10;87.00;;;;;;7392434;19;20506;-71
2023/06/13 04:50:40;;;;;;;4.15;1.67;;;20.00;87.20;;;;;;7390657;19;20214;-72
2023/06/13 04:53:11;;;;;;;2.20;1.77;;;20.00;87.10;;;;;;7393798;19;20150;-71
2023/06/13 04:55:38;;;;;;;4.03;2.55;;;20.00;87.00;;;;;;7389175;19;20141;-71
2023/06/13 04:58:06;;;;;;;5.25;1.83;;;20.00;86.50;;;;;;7393773;19;20135;-72
2023/06/13 05:00:32;;;;;;;3.50;1.92;;;20.00;87.10;;;;;;7391855;19;20142;-71
2023/06/13 05:03:00;;;;;;;5.63;2.03;;;20.20;85.60;;;;;;7391925;19;20146;-72
2023/06/13 05:05:26;;;;;;;3.00;2.20;;;20.10;87.20;;;;;;7391711;19;20159;-72
2023/06/13 05:07:55;;;;;;;2.53;1.90;;;20.10;86.30;;;;;;7392110;19;20158;-72
2023/06/13 05:10:30;;;;;;;3.75;2.10;;;20.10;85.50;;;;;;7391096;19;20641;-72
2023/06/13 05:12:56;;;;;;;6.35;2.33;;;20.20;85.30;;;;;;7392394;19;20189;-71
2023/06/13 05:15:22;;;;;;;6.13;2.35;;;20.10;85.80;;;;;;7388578;19;20135;-72
2023/06/13 05:17:48;;;;;;;5.25;2.05;;;20.20;86.20;;;;;;7392793;19;20155;-72
2023/06/13 05:20:22;;;;;;;3.08;2.10;;;20.10;85.30;;;;;;7392302;19;20131;-72
2023/06/13 05:22:49;;;;;;;3.30;1.65;;;20.00;84.40;;;;;;7393546;19;20145;-73
2023/06/13 05:25:16;;;;;;;3.88;2.22;;;20.00;85.10;;;;;;7392342;19;20155;-73
2023/06/13 05:27:41;;;;;;;3.10;1.85;;;20.00;84.50;;;;;;7392910;19;20146;-72
2023/06/13 05:30:11;;;;;;;2.85;1.98;;;19.90;84.60;;;;;;7387585;19;20809;-72
2023/06/13 05:32:37;;;;;;;3.17;2.08;;;20.00;84.00;;;;;;7387020;19;20203;-72
2023/06/13 05:35:03;;;;;;;3.17;2.00;;;20.00;83.80;;;;;;7389454;19;20135;-71
2023/06/13 05:37:29;;;;;;;4.00;2.30;;;20.10;83.80;;;;;;7389623;19;20151;-73
2023/06/13 05:39:56;;;;;;;3.38;2.05;;;20.10;84.50;;;;;;7389636;19;20163;-71
2023/06/13 05:42:22;;;;;;;3.95;2.28;;;20.10;85.70;;;;;;7389807;19;20168;-73
2023/06/13 05:44:47;;;;;;;3.25;1.80;;;20.20;84.60;;;;;;7391118;19;20143;-74
2023/06/13 05:47:13;;;;;;;5.45;2.00;;;20.10;85.20;;;;;;7383004;19;20202;-73
2023/06/13 05:49:39;;;;;;;2.95;2.10;;;20.20;84.30;;;;;;7390182;19;20150;-74
2023/06/13 05:52:06;;;;;;;3.78;2.53;;;20.00;83.40;;;;;;7391449;19;20528;-74
2023/06/13 05:54:32;;;;;;;4.18;1.90;;;20.10;83.60;;;;;;7389560;19;20154;-74
2023/06/13 05:57:00;;;;;;;3.97;2.20;;;20.20;84.20;;;;;;7389873;19;20418;-75
2023/06/13 05:59:26;;;;;;;3.45;1.73;;;20.30;82.90;;;;;;7388790;19;20835;-73
2023/06/13 06:01:52;;;;;;;3.23;2.10;;;20.20;83.30;;;;;;7390822;19;20472;-74
2023/06/13 06:04:18;;;;;;;2.83;2.00;;;20.30;82.40;;;;;;7390023;19;20751;-73
2023/06/13 06:06:44;;;;;;;2.53;1.77;;;20.40;79.80;;;;;;7390009;19;20131;-74
2023/06/13 06:09:10;;;;;;;2.90;2.00;;;20.50;78.70;;;;;;7387146;19;20142;-74
2023/06/13 06:11:36;;;;;;;2.75;1.88;;;20.50;78.20;;;;;;7385364;19;20173;-72
2023/06/13 06:14:02;;;;;;;4.47;1.83;;;22.20;76.60;;;;;;7386711;19;20139;-74
2023/06/13 06:16:29;;;;;;;3.13;2.20;;;24.40;73.50;;;;;;7387822;19;20146;-74
2023/06/13 06:18:55;;;;;;;2.72;1.67;;;25.50;70.70;;;;;;7386636;19;20154;-79
2023/06/13 06:21:20;;;;;;;3.22;2.28;;;25.90;66.50;;;;;;7384995;19;20186;-76
2023/06/13 06:23:46;;;;;;;2.40;1.70;;;26.80;65.30;;;;;;7384165;19;20147;-76
2023/06/13 06:26:12;;;;;;;4.30;2.47;;;27.80;63.00;;;;;;7388766;19;20634;-76
2023/06/13 06:28:40;;;;;;;3.55;2.70;;;27.90;64.10;;;;;;7388973;19;20161;-77
2023/06/13 06:31:07;;;;;;;2.55;2.03;;;29.70;60.00;;;;;;7389217;19;20143;-77
2023/06/13 06:33:32;;;;;;;2.88;1.83;;;30.50;57.40;;;;;;7387757;19;20175;-77
2023/06/13 06:35:58;;;;;;;3.70;1.98;;;30.70;57.60;;;;;;7387616;19;20158;-76
2023/06/13 06:38:24;;;;;;;4.55;2.10;;;30.80;54.90;;;;;;7388438;19;20149;-77
2023/06/13 06:40:50;;;;;;;3.88;2.28;;;30.10;54.00;;;;;;7391011;19;20587;-76
2023/06/13 06:43:15;;;;;;;3.42;2.03;;;30.20;53.60;;;;;;7387812;19;20155;-76
2023/06/13 06:45:41;;;;;;;4.63;1.75;;;30.70;53.10;;;;;;7390629;19;20131;-76
2023/06/13 06:48:07;;;;;;;1.75;1.65;;;30.00;53.00;;;;;;7390476;19;20138;-77
2023/06/13 06:50:33;;;;;;;4.38;1.88;;;30.10;53.20;;;;;;7391061;19;20145;-75
2023/06/13 06:52:58;;;;;;;2.58;1.60;;;30.90;52.60;;;;;;7388155;19;20150;-74
2023/06/13 06:55:24;;;;;;;2.78;1.65;;;30.60;52.70;;;;;;7386782;19;20153;-75
2023/06/13 06:57:53;;;;;;;2.20;1.67;;;30.90;51.80;;;;;;7388526;19;20615;-76
2023/06/13 07:00:22;;;;;;;3.92;1.95;;;30.70;51.70;;;;;;7387854;19;20152;-75
2023/06/13 07:02:49;;;;;;;1.88;1.63;;;30.20;51.00;;;;;;7387992;19;20234;-77
2023/06/13 07:05:15;;;;;;;2.08;1.65;;;29.50;51.50;;;;;;7389137;19;20130;-76
2023/06/13 07:07:45;;;;;;;5.88;1.83;;;29.40;52.80;;;;;;7389918;19;20131;-76
2023/06/13 07:10:11;;;;;;;2.42;1.80;;;28.70;53.40;;;;;;7386131;19;20131;-75
2023/06/13 07:12:40;;;;;;;3.15;1.63;;;28.10;53.80;;;;;;7388598;19;20150;-77
2023/06/13 07:15:06;;;;;;;2.63;1.90;;;28.10;53.80;;;;;;7385989;19;20187;-76
2023/06/13 07:17:32;;;;;;;4.03;1.60;;;28.40;53.40;;;;;;7388994;19;20149;-78
2023/06/13 07:19:58;;;;;;;3.55;1.90;;;28.60;52.70;;;;;;7388570;19;20138;-76
2023/06/13 07:22:27;;;;;;;1.58;1.48;;;28.10;53.40;;;;;;7386882;19;20645;-76
2023/06/13 07:24:53;;;;;;;2.47;1.88;;;28.40;52.80;;;;;;7387754;19;20149;-76
2023/06/13 07:27:19;;;;;;;3.42;2.08;;;28.30;53.10;;;;;;7389214;19;20594;-76
2023/06/13 07:29:44;;;;;;;2.47;1.88;;;28.00;52.80;;;;;;7386640;19;20131;-76
2023/06/13 07:32:10;;;;;;;1.98;1.75;;;27.30;53.90;;;;;;7389051;19;20150;-75
2023/06/13 07:34:36;;;;;;;3.15;2.00;;;27.00;54.20;;;;;;7385187;19;20625;-74
2023/06/13 07:37:05;;;;;;;3.65;1.90;;;27.20;54.40;;;;;;7388043;19;20161;-75
2023/06/13 07:39:30;;;;;;;1.88;1.70;;;27.70;55.10;;;;;;7385519;19;20156;-74
2023/06/13 07:41:56;;;;;;;1.95;1.77;;;27.90;53.30;;;;;;7386976;19;20138;-73
2023/06/13 07:44:24;;;;;;;2.67;1.80;;;27.70;54.00;;;;;;7387200;19;20583;-74
2023/06/13 07:46:50;;;;;;;3.05;1.88;;;27.80;54.20;;;;;;7388423;19;20135;-74
2023/06/13 07:49:16;;;;;;;2.80;1.70;;;28.20;53.60;;;;;;7384022;19;21052;-74
2023/06/13 07:51:42;;;;;;;2.78;1.90;;;28.30;53.00;;;;;;7385892;19;20141;-74
2023/06/13 07:54:08;;;;;;;2.75;1.90;;;27.80;52.10;;;;;;7386593;19;20216;-75
2023/06/13 07:56:34;;;;;;;1.90;1.65;;;27.60;53.00;;;;;;7386036;19;20159;-75
2023/06/13 07:59:00;;;;;;;2.63;1.80;;;27.60;52.20;;;;;;7385394;19;20145;-74
2023/06/13 08:01:26;;;;;;;2.40;2.08;;;27.20;52.80;;;;;;7382955;19;20218;-75
2023/06/13 08:03:52;;;;;;;2.60;2.38;;;27.20;52.90;;;;;;7386661;19;20163;-74
2023/06/13 08:06:17;;;;;;;2.50;2.20;;;27.20;52.80;;;;;;7384926;19;20130;-74
2023/06/13 08:08:46;;;;;;;3.10;2.22;;;27.20;52.70;;;;;;7386298;19;20531;-73
2023/06/13 08:11:14;;;;;;;2.38;1.83;;;27.30;52.70;;;;;;7385741;19;20139;-74
2023/06/13 08:13:40;;;;;;;2.67;1.58;;;27.30;53.00;;;;;;7385791;19;20141;-74
2023/06/13 08:16:06;;;;;;;2.92;2.20;;;27.10;53.70;;;;;;7383145;19;20131;-73
2023/06/13 08:18:32;;;;;;;2.35;1.65;;;26.80;54.40;;;;;;7384649;19;20146;-74
2023/06/13 08:20:57;;;;;;;4.53;2.60;;;26.60;55.00;;;;;;7383180;19;20190;-75
2023/06/13 08:23:23;;;;;;;3.78;2.10;;;27.10;54.60;;;;;;7385286;19;20185;-76
2023/06/13 08:25:49;;;;;;;5.07;2.08;;;27.20;54.10;;;;;;7385653;19;20138;-74
2023/06/13 08:28:15;;;;;;;2.92;2.30;;;27.50;53.90;;;;;;7387564;19;20214;-73
2023/06/13 08:30:42;;;;;;;3.30;2.30;;;27.60;54.00;;;;;;7384693;19;20150;-74
2023/06/13 08:33:08;;;;;;;4.00;2.35;;;27.70;54.00;;;;;;7386096;19;20494;-76
2023/06/13 08:35:34;;;;;;;2.38;1.70;;;27.60;54.40;;;;;;7383799;19;20141;-75
2023/06/13 08:38:00;;;;;;;2.63;1.88;;;27.70;53.50;;;;;;7383611;19;20655;-75
2023/06/13 08:40:25;;;;;;;8.80;5.32;;;27.30;53.90;;;;;;7384329;19;20127;-75
2023/06/13 08:42:52;;;;;;;8.55;6.63;;;27.00;55.20;;;;;;7384889;19;20619;-74
2023/06/13 08:45:17;;;;;;;2.63;2.03;;;27.20;55.30;;;;;;7385777;19;20135;-75
2023/06/13 08:47:46;;;;;;;3.20;1.80;;;27.50;54.30;;;;;;7382846;19;20146;-75
2023/06/13 08:50:18;;;;;;;4.53;2.20;;;27.30;53.40;;;;;;7383469;19;20614;-76
2023/06/13 08:52:47;;;;;;;3.63;2.20;;;27.10;53.20;;;;;;7386635;19;20198;-75
2023/06/13 08:55:15;;;;;;;2.85;2.00;;;26.60;53.40;;;;;;7380648;19;20146;-76
2023/06/13 08:57:42;;;;;;;3.53;1.77;;;26.40;54.20;;;;;;7383501;19;20133;-74
2023/06/13 09:00:11;;;;;;;3.03;2.00;;;26.00;54.40;;;;;;7384215;19;20201;-74
2023/06/13 09:02:40;;;;;;;4.45;2.38;;;26.20;54.20;;;;;;7390540;19;20479;-75
2023/06/13 09:05:06;;;;;;;2.85;2.00;;;26.10;54.10;;;;;;7389482;19;20150;-72
2023/06/13 09:07:33;;;;;;;4.53;2.30;;;26.20;54.30;;;;;;7391916;19;20130;-74
2023/06/13 09:09:59;;;;;;;3.78;2.17;;;25.90;54.50;;;;;;7386638;19;20142;-73
2023/06/13 09:12:25;;;;;;;3.33;2.10;;;25.60;55.30;;;;;;7390081;19;20154;-74
2023/06/13 09:14:52;;;;;;;3.78;2.03;;;25.70;55.80;;;;;;7390112;19;20630;-72
2023/06/13 09:17:18;;;;;;;2.30;1.95;;;25.80;55.20;;;;;;7389614;19;20141;-72
2023/06/13 09:19:44;;;;;;;4.93;2.35;;;26.20;54.50;;;;;;7389828;19;20143;-74
2023/06/13 09:22:10;;;;;;;3.50;2.50;;;26.10;55.40;;;;;;7387922;19;20131;-73
2023/06/13 09:24:36;;;;;;;3.58;2.40;;;26.00;56.60;;;;;;7389961;19;20151;-74
2023/06/13 09:27:04;;;;;;;5.70;2.33;;;25.80;57.40;;;;;;7389293;19;20127;-73
2023/06/13 09:29:35;;;;;;;2.90;1.88;;;26.10;57.10;;;;;;7390940;19;20143;-73
2023/06/13 09:32:02;;;;;;;2.83;2.40;;;25.90;56.00;;;;;;7386315;19;20138;-73
2023/06/13 09:34:29;;;;;;;5.47;2.17;;;25.60;56.60;;;;;;7388394;19;20127;-72
2023/06/13 09:36:56;;;;;;;5.75;2.60;;;25.60;56.40;;;;;;7391110;19;20356;-75
2023/06/13 09:39:23;;;;;;;3.50;1.73;;;25.70;55.90;;;;;;7389834;19;20142;-72
2023/06/13 09:41:55;;;;;;;3.40;2.00;;;25.60;55.20;;;;;;7388648;19;20154;-73
2023/06/13 09:44:23;;;;;;;2.25;1.88;;;25.50;55.50;;;;;;7388368;19;20150;-75
2023/06/13 09:46:53;;;;;;;2.78;2.17;;;25.60;55.60;;;;;;7389712;19;20154;-74
2023/06/13 09:49:19;;;;;;;2.70;2.20;;;25.50;55.10;;;;;;7390641;19;20606;-74
2023/06/13 09:51:46;;;;;;;2.92;2.28;;;25.70;55.10;;;;;;7387818;19;20159;-72
2023/06/13 09:54:13;;;;;;;3.78;2.67;;;25.60;54.50;;;;;;7390061;19;20213;-74
2023/06/13 09:56:43;;;;;;;2.80;2.30;;;25.50;55.60;;;;;;7389105;19;20139;-73
2023/06/13 09:59:17;;;;;;;3.50;2.03;;;25.50;55.70;;;;;;7388502;19;20145;-74
2023/06/13 10:01:44;;;;;;;2.42;1.85;;;25.70;55.70;;;;;;7387911;19;20159;-72
2023/06/13 10:04:10;;;;;;;2.25;1.70;;;25.90;55.40;;;;;;7390561;19;20154;-74
2023/06/13 10:06:36;;;;;;;2.83;2.38;;;26.00;53.80;;;;;;7388267;19;20158;-73
2023/06/13 10:09:02;;;;;;;3.45;2.42;;;25.90;54.20;;;;;;7389209;19;20150;-73
2023/06/13 10:11:33;;;;;;;5.25;2.88;;;25.90;54.00;;;;;;7385693;19;20622;-71
2023/06/13 10:14:11;;;;;;;2.55;2.00;;;25.80;53.80;;;;;;7385940;19;20177;-74
2023/06/13 10:16:51;;;;;;;5.00;2.00;;;25.70;54.20;;;;;;7388973;19;20150;-73
2023/06/13 10:19:22;;;;;;;2.83;2.35;;;25.80;54.80;;;;;;7390835;19;20148;-75
2023/06/13 10:21:48;;;;;;;3.15;2.22;;;25.70;53.80;;;;;;7387159;19;20146;-74
2023/06/13 10:24:19;;;;;;;2.50;2.13;;;25.70;52.80;;;;;;7386461;19;20162;-74
2023/06/13 10:26:48;;;;;;;5.15;2.00;;;25.70;52.90;;;;;;7387648;19;20155;-74
2023/06/13 10:29:23;;;;;;;2.97;2.10;;;25.80;53.20;;;;;;7387953;19;20162;-73
2023/06/13 10:32:26;;;;;;;2.58;2.28;;;25.90;53.40;;;;;;7387547;19;20189;-74
2023/06/13 10:35:16;;;;;;;4.80;2.33;;;25.80;53.80;;;;;;7388816;19;20231;-73
2023/06/13 10:38:15;;;;;;;3.40;2.47;;;25.60;54.40;;;;;;7390928;19;20579;-73
2023/06/13 10:40:46;;;;;;;2.75;2.17;;;25.70;54.80;;;;;;7388927;19;20142;-72
2023/06/13 10:43:31;;;;;;;2.67;2.03;;;25.80;55.50;;;;;;7386633;19;20157;-73
2023/06/13 10:46:01;;;;;;;6.95;2.42;;;25.90;54.60;;;;;;7388735;19;20135;-74
2023/06/13 10:48:38;;;;;;;5.97;2.25;;;26.00;52.60;;;;;;7389774;19;20620;-72
2023/06/13 10:51:07;;;;;;;2.58;2.15;;;26.10;52.30;;;;;;7389996;19;20138;-73
2023/06/13 10:53:34;;;;;;;2.75;2.00;;;26.10;52.70;;;;;;7386960;19;20131;-73
2023/06/13 10:56:03;;;;;;;2.22;2.03;;;26.10;52.80;;;;;;7386533;19;20161;-72
2023/06/13 10:58:32;;;;;;;3.38;2.10;;;26.10;52.80;;;;;;7389013;19;20135;-74
2023/06/13 11:01:26;;;;;;;3.53;2.10;;;26.10;53.70;;;;;;7389302;19;20142;-73
2023/06/13 11:03:52;;;;;;;6.25;2.20;;;26.20;54.00;;;;;;7389292;19;20141;-73
2023/06/13 11:06:18;;;;;;;3.95;3.20;;;26.20;52.70;;;;;;7388110;19;20142;-72
2023/06/13 11:08:44;;;;;;;3.53;2.22;;;26.10;53.50;;;;;;7388177;19;20131;-72
2023/06/13 11:11:10;;;;;;;2.35;2.00;;;26.30;53.20;;;;;;7386287;19;20138;-74
2023/06/13 11:13:36;;;;;;;3.53;2.00;;;26.40;52.90;;;;;;7387626;19;20134;-75
2023/06/13 11:16:20;;;;;;;3.88;2.15;;;26.40;53.20;;;;;;7387018;19;20157;-74
2023/06/13 11:18:52;;;;;;;4.97;2.08;;;26.40;53.10;;;;;;7385573;19;20853;-74
2023/06/13 11:21:18;;;;;;;3.88;1.88;;;26.20;53.80;;;;;;7387625;19;20580;-75
2023/06/13 11:23:49;;;;;;;3.42;2.17;;;26.30;52.50;;;;;;7385543;19;20135;-73
2023/06/13 11:26:20;;;;;;;2.42;2.17;;;26.30;51.90;;;;;;7388968;19;20594;-75
2023/06/13 11:28:53;;;;;;;3.35;2.15;;;26.30;51.90;;;;;;7387072;19;20162;-73
2023/06/13 11:31:20;;;;;;;3.10;2.00;;;26.30;51.00;;;;;;7385726;19;20138;-74
2023/06/13 11:33:48;;;;;;;3.08;2.05;;;26.10;51.50;;;;;;7387114;19;20161;-75
2023/06/13 11:36:18;;;;;;;4.07;2.10;;;26.10;51.60;;;;;;7382611;19;20138;-73
2023/06/13 11:38:52;;;;;;;2.42;2.22;;;25.90;52.30;;;;;;7387456;19;20194;-75
2023/06/13 11:41:17;;;;;;;6.00;2.00;;;26.00;52.50;;;;;;7385978;19;20127;-73
2023/06/13 11:43:44;;;;;;;3.78;1.80;;;26.10;52.90;;;;;;7384961;19;20542;-75
2023/06/13 11:46:13;;;;;;;4.38;2.15;;;26.10;52.80;;;;;;7385803;19;20885;-73
2023/06/13 11:48:38;;;;;;;4.50;2.38;;;26.20;52.70;;;;;;7385231;19;20218;-74
2023/06/13 11:51:08;;;;;;;3.20;2.42;;;26.30;52.80;;;;;;7385877;19;20139;-74
2023/06/13 11:53:56;;;;;;;3.30;2.75;;;26.30;53.10;;;;;;7384676;19;20602;-74
2023/06/13 11:56:24;;;;;;;3.67;2.80;;;26.40;53.10;;;;;;7385083;19;20194;-75
2023/06/13 11:58:51;;;;;;;3.05;2.35;;;26.50;52.90;;;;;;7385928;19;20143;-74
2023/06/13 12:01:17;;;;;;;4.47;2.58;;;26.50;52.40;;;;;;7385732;19;20138;-74
2023/06/13 12:03:45;;;;;;;2.65;2.25;;;26.60;53.30;;;;;;7385303;19;20149;-74
2023/06/13 12:06:11;;;;;;;4.05;2.45;;;26.70;53.10;;;;;;7386114;19;20756;-74
2023/06/13 12:08:40;;;;;;;5.28;3.25;;;26.70;54.20;;;;;;7384759;19;20151;-74
2023/06/13 12:11:08;;;;;;;3.30;2.63;;;26.80;53.40;;;;;;7384051;19;20162;-74
2023/06/13 12:13:34;;;;;;;3.10;2.50;;;26.80;53.60;;;;;;7385829;19;20145;-75
2023/06/13 12:16:01;;;;;;;3.13;2.13;;;26.80;53.70;;;;;;7382839;19;20274;-73
2023/06/13 12:18:30;;;;;;;4.00;2.35;;;26.80;52.60;;;;;;7386515;19;20130;-74
2023/06/13 12:20:57;;;;;;;3.75;2.97;;;26.70;52.50;;;;;;7386574;19;20629;-74
2023/06/13 12:23:27;;;;;;;3.20;2.53;;;26.60;53.40;;;;;;7384866;19;20234;-74
2023/06/13 12:25:53;;;;;;;3.45;2.60;;;26.80;52.80;;;;;;7385565;19;20142;-77
2023/06/13 12:28:20;;;;;;;2.47;2.10;;;26.90;52.50;;;;;;7385184;19;20161;-74
2023/06/13 12:30:49;;;;;;;4.57;3.17;;;26.80;52.80;;;;;;7384246;19;20597;-74
2023/06/13 12:33:18;;;;;;;3.63;2.67;;;26.80;53.70;;;;;;7383929;19;20146;-75
2023/06/13 12:35:58;;;;;;;4.07;2.42;;;26.50;52.20;;;;;;7387603;19;20131;-74
2023/06/13 12:38:32;;;;;;;5.65;2.75;;;26.60;52.10;;;;;;7391433;19;20157;-75
2023/06/13 12:40:59;;;;;;;3.90;2.78;;;26.80;51.50;;;;;;7391631;19;20453;-75
2023/06/13 12:43:29;;;;;;;3.33;2.58;;;26.90;51.50;;;;;;7388686;19;20176;-75
2023/06/13 12:45:57;;;;;;;2.58;2.20;;;26.90;52.10;;;;;;7389910;19;20360;-75
2023/06/13 12:48:27;;;;;;;4.47;2.65;;;27.10;52.00;;;;;;7394959;19;20138;-74
2023/06/13 12:50:54;;;;;;;2.90;2.30;;;27.10;51.50;;;;;;7388420;19;20138;-74
2023/06/13 12:53:23;;;;;;;4.30;2.40;;;27.10;51.70;;;;;;7393714;19;20468;-73